首页
METAR-TAF:

METAR-TAF

机场 :

敖德薩國際機場

敖德薩, 乌克兰

纬度: 46-26N, 经度: 030-46E, 海拔: 42米

当前天气观测

该预报发布于15分钟前的08:30 UTC
风速4节,风向西南,在南转南东西之间变化
温度 31°C
湿度 29%
气压 1015 hPa
能见度10公里或以上
1500米以下无云,无积雨云

METAR: UKOO 140830Z 22002MPS 150V270 CAVOK 31/11 Q1015 R16/090060 NOSIG

时间: 11:45 (08:45 UTC)

预报

该预报发布于3小时和42分钟前的05:03 UTC
预报有效从14日的 06点(UTC)到 15日的 06点(UTC)
风速10节,风向,有时为21节阵风
能見度: 6000
散云层高于1500英尺
成为
从 14日的 17点(UTC)到 14日的 18点(UTC)
风速6节,风向西转西南
短暂存在
从 14日的 18点(UTC)到 15日的 06点(UTC)
能見度: 2100
浮尘

TAF: UKOO 140503Z 1406/1506 17005G11MPS 6000 SCT015 TX31/1412Z TN17/1502Z BECMG 1417/1418 25003MPS TEMPO 1418/1506 2100 DU

超过4000个机场的气象观测和天气预报(METAR&TAF报告)。

可查询的气象台以黄色和红色小点在地图上表示。

将鼠标移到小点上方,可查看气象台名称。

然后点击查看天气观测和预报。

如需切换地图:点击带黑十字的绿色按钮放大地图;点击带横线的绿色按钮缩小地图;或者点击绿色箭头查看邻近地区的地图。


METAR-TAF: